Time;durP1;ratioP1;P1;durP2;ratioP2;P2;SDS_P1;SDS_P2;PMS_P1;PMS_P2;Temp;Humidity;BMP_temperature;BMP_pressure;BME280_temperature;BME280_humidity;BME280_pressure;Samples;Min_cycle;Max_cycle;Signal;HPM_P1;HPM_P2
2023/09/23 00:02:14;;;;;;;;;;;;;;;;;;6300413;28;19904;-85
2023/09/23 00:05:16;;;;;;;;;;;;;;;;;;6301300;28;19905;-86
2023/09/23 00:08:18;;;;;;;;;;;;;;;;;;6300054;28;20299;-87
2023/09/23 00:11:19;;;;;;;;;;;;;;;;;;6281831;28;19904;-87
2023/09/23 00:14:19;;;;;;;;;;;;;;;;;;6282305;28;19912;-86
2023/09/23 00:17:19;;;;;;;;;;;;;;;;;;6281844;28;19904;-86
2023/09/23 00:20:21;;;;;;;;;;;;;;;;;;6299898;28;19904;-86
2023/09/23 00:23:22;;;;;;;;;;;;;;;;;;6299993;28;19912;-86
2023/09/23 00:26:22;;;;;;;;;;;;;;;;;;6282066;28;19975;-86
2023/09/23 00:29:24;;;;;;;;;;;;;;;;;;6281956;28;19908;-86
2023/09/23 00:32:25;;;;;;;;;;;;;;;;;;6299920;28;19904;-86
2023/09/23 00:35:25;;;;;;;;;;;;;;;;;;6300643;28;19959;-86
2023/09/23 00:38:27;;;;;;;;;;;;;;;;;;6283312;28;19951;-86
2023/09/23 00:41:28;;;;;;;;;;;;;;;;;;6295608;28;19962;-86
2023/09/23 00:44:28;;;;;;;;;;;;;;;;;;6308886;28;19916;-85
2023/09/23 00:47:31;;;;;;;;;;;;;;;;;;6302942;28;19904;-85
2023/09/23 00:50:31;;;;;;;;;;;;;;;;;;6298848;28;19904;-84
2023/09/23 00:53:34;;;;;;;;;;;;;;;;;;6299694;28;19915;-85
2023/09/23 00:56:36;;;;;;;;;;;;;;;;;;6300628;28;19936;-84
2023/09/23 00:59:36;;;;;;;;;;;;;;;;;;6283129;28;19954;-83
2023/09/23 01:02:37;;;;;;;;;;;;;;;;;;6301498;28;19904;-84
2023/09/23 01:05:37;;;;;;;;;;;;;;;;;;6300823;28;19952;-85
2023/09/23 01:08:38;;;;;;;;;;;;;;;;;;6309758;28;19911;-94
2023/09/23 01:11:40;;;;;;;;;;;;;;;;;;6330503;28;19934;-95
2023/09/23 01:14:40;;;;;;;;;;;;;;;;;;6313171;28;19916;-94
2023/09/23 01:17:40;;;;;;;;;;;;;;;;;;6293897;28;19908;-85
2023/09/23 01:20:42;;;;;;;;;;;;;;;;;;6301831;28;19904;-84
2023/09/23 01:23:43;;;;;;;;;;;;;;;;;;6283015;28;19927;-84
2023/09/23 01:26:44;;;;;;;;;;;;;;;;;;6283401;28;19911;-84
2023/09/23 01:29:44;;;;;;;;;;;;;;;;;;6301754;28;19904;-85
2023/09/23 01:32:45;;;;;;;;;;;;;;;;;;6302865;28;19919;-84
2023/09/23 01:35:45;;;;;;;;;;;;;;;;;;6282962;28;20326;-84
2023/09/23 01:38:46;;;;;;;;;;;;;;;;;;6282429;28;19911;-84
2023/09/23 01:41:46;;;;;;;;;;;;;;;;;;6283021;28;19920;-85
2023/09/23 01:44:46;;;;;;;;;;;;;;;;;;6283308;28;19908;-85
2023/09/23 01:47:46;;;;;;;;;;;;;;;;;;6283122;28;20004;-85
2023/09/23 01:50:46;;;;;;;;;;;;;;;;;;6282960;28;19911;-85
2023/09/23 01:53:46;;;;;;;;;;;;;;;;;;6286803;28;19960;-84
2023/09/23 01:56:46;;;;;;;;;;;;;;;;;;6306226;28;20019;-85
2023/09/23 01:59:47;;;;;;;;;;;;;;;;;;6287839;28;19915;-86
2023/09/23 02:02:49;;;;;;;;;;;;;;;;;;6307369;28;19915;-86
2023/09/23 02:05:49;;;;;;;;;;;;;;;;;;6293072;28;19904;-86
2023/09/23 02:08:49;;;;;;;;;;;;;;;;;;6310726;28;19995;-86
2023/09/23 02:11:53;;;;;;;;;;;;;;;;;;6310302;28;19944;-86
2023/09/23 02:14:53;;;;;;;;;;;;;;;;;;6309966;28;19923;-86
2023/09/23 02:17:54;;;;;;;;;;;;;;;;;;6291780;28;20293;-92
2023/09/23 02:20:54;;;;;;;;;;;;;;;;;;6304976;28;19904;-93
2023/09/23 02:23:57;;;;;;;;;;;;;;;;;;6304299;28;19944;-91
2023/09/23 02:26:57;;;;;;;;;;;;;;;;;;6285666;28;19971;-93
2023/09/23 02:29:57;;;;;;;;;;;;;;;;;;6284352;28;19908;-91
2023/09/23 02:32:58;;;;;;;;;;;;;;;;;;6284020;28;20448;-93
2023/09/23 02:36:00;;;;;;;;;;;;;;;;;;6302156;28;19904;-92
2023/09/23 02:39:10;;;;;;;;;;;;;;;;;;6285036;28;19905;-92
2023/09/23 02:42:12;;;;;;;;;;;;;;;;;;6301938;28;19958;-91
2023/09/23 02:45:12;;;;;;;;;;;;;;;;;;6284167;28;20231;-91
2023/09/23 02:48:13;;;;;;;;;;;;;;;;;;6301870;28;20404;-91
2023/09/23 02:51:13;;;;;;;;;;;;;;;;;;6302154;28;19911;-91
2023/09/23 02:54:17;;;;;;;;;;;;;;;;;;6283565;28;20347;-93
2023/09/23 02:57:17;;;;;;;;;;;;;;;;;;6284376;28;19908;-90
2023/09/23 03:00:19;;;;;;;;;;;;;;;;;;6283613;28;19931;-91
2023/09/23 03:03:19;;;;;;;;;;;;;;;;;;6302145;28;19912;-90
2023/09/23 03:06:20;;;;;;;;;;;;;;;;;;6284058;28;19905;-90
2023/09/23 03:09:22;;;;;;;;;;;;;;;;;;6283455;28;19978;-91
2023/09/23 03:12:23;;;;;;;;;;;;;;;;;;6301609;28;19919;-89
2023/09/23 03:15:33;;;;;;;;;;;;;;;;;;6282810;28;19905;-90
2023/09/23 03:18:36;;;;;;;;;;;;;;;;;;6283300;28;19956;-90
2023/09/23 03:21:36;;;;;;;;;;;;;;;;;;6283064;28;19911;-89
2023/09/23 03:24:37;;;;;;;;;;;;;;;;;;6300875;28;19904;-90
2023/09/23 03:27:39;;;;;;;;;;;;;;;;;;6283155;28;20398;-85
2023/09/23 03:30:39;;;;;;;;;;;;;;;;;;6301534;28;19927;-85
2023/09/23 03:33:41;;;;;;;;;;;;;;;;;;6282537;28;19908;-85
2023/09/23 03:36:45;;;;;;;;;;;;;;;;;;6283029;28;19911;-90
2023/09/23 03:39:45;;;;;;;;;;;;;;;;;;6300632;28;20376;-90
2023/09/23 03:42:45;;;;;;;;;;;;;;;;;;6300993;28;19904;-90
2023/09/23 03:45:45;;;;;;;;;;;;;;;;;;6300607;28;19905;-90
2023/09/23 03:48:46;;;;;;;;;;;;;;;;;;6282717;28;19904;-91
2023/09/23 03:51:46;;;;;;;;;;;;;;;;;;6282220;28;19939;-90
2023/09/23 03:54:47;;;;;;;;;;;;;;;;;;6282404;28;19912;-90
2023/09/23 03:57:47;;;;;;;;;;;;;;;;;;6299966;28;20374;-90
2023/09/23 04:00:47;;;;;;;;;;;;;;;;;;6299905;28;20071;-90
2023/09/23 04:03:47;;;;;;;;;;;;;;;;;;6282214;28;19947;-91
2023/09/23 04:06:47;;;;;;;;;;;;;;;;;;6283557;28;19948;-90
2023/09/23 04:09:47;;;;;;;;;;;;;;;;;;6282042;28;19913;-92
2023/09/23 04:12:48;;;;;;;;;;;;;;;;;;6300200;28;19966;-90
2023/09/23 04:15:48;;;;;;;;;;;;;;;;;;6282809;28;20005;-90
2023/09/23 04:18:51;;;;;;;;;;;;;;;;;;6281337;28;20401;-90
2023/09/23 04:21:52;;;;;;;;;;;;;;;;;;6299663;28;19912;-89
2023/09/23 04:24:52;;;;;;;;;;;;;;;;;;6299138;28;19904;-90
2023/09/23 04:27:53;;;;;;;;;;;;;;;;;;6298838;28;20266;-88
2023/09/23 04:30:53;;;;;;;;;;;;;;;;;;6281525;28;19944;-89
2023/09/23 04:33:53;;;;;;;;;;;;;;;;;;6299292;28;20362;-89
2023/09/23 04:36:55;;;;;;;;;;;;;;;;;;6281209;28;19904;-86
2023/09/23 04:39:57;;;;;;;;;;;;;;;;;;6280581;28;20025;-86
2023/09/23 04:42:57;;;;;;;;;;;;;;;;;;6299260;28;19915;-86
2023/09/23 04:45:58;;;;;;;;;;;;;;;;;;6281060;28;19960;-86
2023/09/23 04:48:58;;;;;;;;;;;;;;;;;;6280843;28;20014;-86
2023/09/23 04:51:58;;;;;;;;;;;;;;;;;;6299836;28;20346;-86
2023/09/23 04:54:59;;;;;;;;;;;;;;;;;;6298977;28;19912;-86
2023/09/23 04:58:00;;;;;;;;;;;;;;;;;;6298929;28;19905;-85
2023/09/23 05:01:01;;;;;;;;;;;;;;;;;;6298634;28;19951;-86
2023/09/23 05:04:08;;;;;;;;;;;;;;;;;;6299267;28;19947;-86
2023/09/23 05:07:10;;;;;;;;;;;;;;;;;;6298759;28;19908;-85
2023/09/23 05:10:11;;;;;;;;;;;;;;;;;;6255692;28;19913;-86
2023/09/23 05:13:12;;;;;;;;;;;;;;;;;;6273877;28;20292;-85
2023/09/23 05:16:12;;;;;;;;;;;;;;;;;;6255866;28;19911;-85
2023/09/23 05:19:14;;;;;;;;;;;;;;;;;;6273741;28;19927;-85
2023/09/23 05:22:16;;;;;;;;;;;;;;;;;;6273757;28;20389;-85
2023/09/23 05:25:16;;;;;;;;;;;;;;;;;;6273974;28;19905;-85
2023/09/23 05:28:16;;;;;;;;;;;;;;;;;;6273720;28;20279;-84
2023/09/23 05:31:17;;;;;;;;;;;;;;;;;;6273788;28;19908;-84
2023/09/23 05:34:20;;;;;;;;;;;;;;;;;;6273247;28;19935;-85
2023/09/23 05:37:22;;;;;;;;;;;;;;;;;;6274094;28;19955;-84
2023/09/23 05:43:23;;;;;;;;;;;;;;;;;;6275025;28;19905;-85
2023/09/23 05:46:24;;;;;;;;;;;;;;;;;;6255417;28;19907;-85
2023/09/23 05:49:24;;;;;;;;;;;;;;;;;;6273134;28;19905;-85
2023/09/23 05:52:24;;;;;;;;;;;;;;;;;;6255408;28;19966;-84
2023/09/23 05:55:24;;;;;;;;;;;;;;;;;;6255006;28;19904;-85
2023/09/23 05:58:24;;;;;;;;;;;;;;;;;;6273699;28;19904;-85
2023/09/23 06:01:24;;;;;;;;;;;;;;;;;;6273267;28;19955;-85
2023/09/23 06:04:25;;;;;;;;;;;;;;;;;;6255321;28;19905;-86
2023/09/23 06:07:26;;;;;;;;;;;;;;;;;;6254836;28;19912;-86
2023/09/23 06:10:26;;;;;;;;;;;;;;;;;;6280180;28;19905;-83
2023/09/23 06:13:27;;;;;;;;;;;;;;;;;;6298125;28;19920;-84
2023/09/23 06:16:27;;;;;;;;;;;;;;;;;;6280091;28;19905;-83
2023/09/23 06:19:27;;;;;;;;;;;;;;;;;;6297891;28;19908;-84
2023/09/23 06:22:27;;;;;;;;;;;;;;;;;;6298062;28;19908;-84
2023/09/23 06:25:28;;;;;;;;;;;;;;;;;;6297860;28;19908;-85
2023/09/23 06:28:29;;;;;;;;;;;;;;;;;;6279621;28;19905;-86
2023/09/23 06:31:29;;;;;;;;;;;;;;;;;;6279851;28;19904;-85
2023/09/23 06:34:30;;;;;;;;;;;;;;;;;;6279305;28;20270;-87
2023/09/23 06:37:30;;;;;;;;;;;;;;;;;;6297307;28;19914;-87
2023/09/23 06:40:30;;;;;;;;;;;;;;;;;;6297826;28;19908;-86
2023/09/23 06:43:30;;;;;;;;;;;;;;;;;;6297979;28;19909;-85
2023/09/23 06:46:31;;;;;;;;;;;;;;;;;;6297370;28;19904;-86
2023/09/23 06:49:31;;;;;;;;;;;;;;;;;;6299381;28;19904;-86
2023/09/23 06:52:31;;;;;;;;;;;;;;;;;;6301870;28;19904;-87
2023/09/23 06:55:31;;;;;;;;;;;;;;;;;;6284797;28;20246;-91
2023/09/23 06:58:31;;;;;;;;;;;;;;;;;;6285338;28;19904;-89
2023/09/23 07:01:34;;;;;;;;;;;;;;;;;;6302469;28;19904;-89
2023/09/23 07:04:36;;;;;;;;;;;;;;;;;;6301815;28;19904;-89
2023/09/23 07:07:36;;;;;;;;;;;;;;;;;;6301770;28;19911;-90
2023/09/23 07:10:38;;;;;;;;;;;;;;;;;;6302245;28;19900;-90
2023/09/23 07:13:38;;;;;;;;;;;;;;;;;;6301824;28;19916;-89
2023/09/23 07:16:38;;;;;;;;;;;;;;;;;;6283421;28;19908;-88
2023/09/23 07:19:38;;;;;;;;;;;;;;;;;;6301278;28;20274;-89
2023/09/23 07:22:38;;;;;;;;;;;;;;;;;;6302071;28;19939;-89
2023/09/23 07:25:38;;;;;;;;;;;;;;;;;;6283725;28;19931;-89
2023/09/23 07:28:38;;;;;;;;;;;;;;;;;;6301568;28;20030;-90
2023/09/23 07:31:39;;;;;;;;;;;;;;;;;;6301270;28;19908;-90
2023/09/23 07:34:39;;;;;;;;;;;;;;;;;;6283976;28;19908;-91
2023/09/23 07:37:39;;;;;;;;;;;;;;;;;;6301138;28;19905;-90
2023/09/23 07:40:39;;;;;;;;;;;;;;;;;;6301378;28;19905;-87
2023/09/23 07:43:39;;;;;;;;;;;;;;;;;;6301098;28;19910;-89
2023/09/23 07:46:39;;;;;;;;;;;;;;;;;;6282605;28;19904;-88
2023/09/23 07:49:40;;;;;;;;;;;;;;;;;;6282827;28;19904;-87
2023/09/23 07:52:41;;;;;;;;;;;;;;;;;;6300395;28;19904;-88
2023/09/23 07:55:43;;;;;;;;;;;;;;;;;;6301073;28;19904;-88
2023/09/23 07:58:43;;;;;;;;;;;;;;;;;;6301108;28;19950;-88
2023/09/23 08:01:43;;;;;;;;;;;;;;;;;;6299189;28;19908;-88
2023/09/23 08:04:46;;;;;;;;;;;;;;;;;;6300189;28;20320;-88
2023/09/23 08:07:47;;;;;;;;;;;;;;;;;;6300550;28;19912;-86
2023/09/23 08:10:49;;;;;;;;;;;;;;;;;;6300441;28;19905;-87
2023/09/23 08:13:50;;;;;;;;;;;;;;;;;;6299780;28;19999;-86
2023/09/23 08:16:53;;;;;;;;;;;;;;;;;;6282210;28;20305;-87
2023/09/23 08:19:53;;;;;;;;;;;;;;;;;;6281957;28;20366;-87
2023/09/23 08:22:53;;;;;;;;;;;;;;;;;;6282415;28;19905;-89
2023/09/23 08:25:54;;;;;;;;;;;;;;;;;;6300607;28;19916;-87
2023/09/23 08:28:54;;;;;;;;;;;;;;;;;;6299850;28;19995;-87
2023/09/23 08:31:54;;;;;;;;;;;;;;;;;;6300205;28;19912;-87
2023/09/23 08:34:54;;;;;;;;;;;;;;;;;;6281655;28;19912;-87
2023/09/23 08:37:54;;;;;;;;;;;;;;;;;;6281872;28;19904;-87
2023/09/23 08:40:54;;;;;;;;;;;;;;;;;;6299354;28;19915;-87
2023/09/23 08:43:54;;;;;;;;;;;;;;;;;;6300208;28;20013;-89
2023/09/23 08:46:55;;;;;;;;;;;;;;;;;;6283676;28;20282;-90
2023/09/23 08:49:55;;;;;;;;;;;;;;;;;;6302735;28;19904;-92
2023/09/23 08:52:55;;;;;;;;;;;;;;;;;;6291876;28;20002;-93
2023/09/23 08:55:55;;;;;;;;;;;;;;;;;;6301187;28;19998;-92
2023/09/23 08:58:55;;;;;;;;;;;;;;;;;;6282544;28;20065;-90
2023/09/23 09:01:55;;;;;;;;;;;;;;;;;;6282161;28;19970;-91
2023/09/23 09:04:57;;;;;;;;;;;;;;;;;;6300148;28;20019;-91
2023/09/23 09:07:57;;;;;;;;;;;;;;;;;;6299052;28;20424;-89
2023/09/23 09:10:57;;;;;;;;;;;;;;;;;;6298883;28;19947;-87
2023/09/23 09:13:58;;;;;;;;;;;;;;;;;;6280401;28;20002;-89
2023/09/23 09:16:58;;;;;;;;;;;;;;;;;;6299002;28;19908;-89
2023/09/23 09:19:58;;;;;;;;;;;;;;;;;;6280228;28;19914;-90
2023/09/23 09:22:58;;;;;;;;;;;;;;;;;;6280275;28;19908;-89
2023/09/23 09:25:58;;;;;;;;;;;;;;;;;;6298632;28;20256;-88
2023/09/23 09:28:58;;;;;;;;;;;;;;;;;;6298173;28;20350;-88
2023/09/23 09:31:58;;;;;;;;;;;;;;;;;;6298142;28;20374;-88
2023/09/23 09:34:59;;;;;;;;;;;;;;;;;;6297895;28;20346;-88
2023/09/23 09:37:59;;;;;;;;;;;;;;;;;;6297931;28;19947;-88
2023/09/23 09:40:59;;;;;;;;;;;;;;;;;;6297924;28;20260;-88
2023/09/23 09:44:00;;;;;;;;;;;;;;;;;;6280291;28;20274;-87
2023/09/23 09:47:00;;;;;;;;;;;;;;;;;;6297780;28;19904;-87
2023/09/23 09:50:00;;;;;;;;;;;;;;;;;;6297790;28;20373;-88
2023/09/23 09:53:01;;;;;;;;;;;;;;;;;;6297624;28;20286;-88
2023/09/23 09:56:01;;;;;;;;;;;;;;;;;;6279557;28;19911;-88
2023/09/23 09:59:03;;;;;;;;;;;;;;;;;;6297609;28;19912;-88
2023/09/23 10:02:04;;;;;;;;;;;;;;;;;;6297926;28;20350;-88
2023/09/23 10:05:05;;;;;;;;;;;;;;;;;;6297400;28;19912;-88
2023/09/23 10:08:06;;;;;;;;;;;;;;;;;;6297358;28;20297;-87
2023/09/23 10:11:06;;;;;;;;;;;;;;;;;;6298449;28;19959;-88
2023/09/23 10:14:07;;;;;;;;;;;;;;;;;;6279279;28;19995;-88
2023/09/23 10:17:09;;;;;;;;;;;;;;;;;;6279932;28;19994;-87
2023/09/23 10:20:13;;;;;;;;;;;;;;;;;;6297688;28;19904;-88
2023/09/23 10:23:13;;;;;;;;;;;;;;;;;;6297242;28;19958;-89
2023/09/23 10:26:13;;;;;;;;;;;;;;;;;;6302819;28;19908;-88
2023/09/23 10:29:14;;;;;;;;;;;;;;;;;;6302280;28;19908;-88
2023/09/23 10:32:14;;;;;;;;;;;;;;;;;;6301916;28;19931;-88
2023/09/23 10:35:15;;;;;;;;;;;;;;;;;;6284488;28;19908;-87
2023/09/23 10:38:15;;;;;;;;;;;;;;;;;;6284126;28;19911;-87
2023/09/23 10:41:15;;;;;;;;;;;;;;;;;;6285203;28;19904;-88
2023/09/23 10:44:15;;;;;;;;;;;;;;;;;;6302071;28;19923;-87
2023/09/23 10:47:16;;;;;;;;;;;;;;;;;;6283842;28;19924;-88
2023/09/23 10:50:16;;;;;;;;;;;;;;;;;;6301664;28;20291;-88
2023/09/23 10:53:16;;;;;;;;;;;;;;;;;;6301451;28;19958;-89
2023/09/23 10:56:17;;;;;;;;;;;;;;;;;;6283644;28;20333;-90
2023/09/23 10:59:17;;;;;;;;;;;;;;;;;;6285033;28;19991;-91
2023/09/23 11:02:17;;;;;;;;;;;;;;;;;;6302133;28;19905;-94
2023/09/23 11:05:17;;;;;;;;;;;;;;;;;;6301611;28;19915;-90
2023/09/23 11:08:20;;;;;;;;;;;;;;;;;;6301272;28;20007;-90
2023/09/23 11:11:20;;;;;;;;;;;;;;;;;;6301738;28;19991;-89
2023/09/23 11:14:23;;;;;;;;;;;;;;;;;;6282997;28;19934;-89
2023/09/23 11:17:29;;;;;;;;;;;;;;;;;;6284222;28;19904;-89
2023/09/23 11:20:29;;;;;;;;;;;;;;;;;;6301373;28;20004;-89
2023/09/23 11:23:30;;;;;;;;;;;;;;;;;;6282728;28;19908;-90
2023/09/23 11:26:31;;;;;;;;;;;;;;;;;;6301372;28;19908;-92
2023/09/23 11:29:31;;;;;;;;;;;;;;;;;;6300957;28;20290;-92
2023/09/23 11:32:31;;;;;;;;;;;;;;;;;;6283187;28;19908;-92
2023/09/23 11:35:32;;;;;;;;;;;;;;;;;;6282555;28;19908;-89
2023/09/23 11:38:32;;;;;;;;;;;;;;;;;;6300842;28;19904;-89
2023/09/23 11:41:32;;;;;;;;;;;;;;;;;;6301724;28;19958;-89
2023/09/23 11:44:34;;;;;;;;;;;;;;;;;;6300839;28;19994;-89
2023/09/23 11:47:34;;;;;;;;;;;;;;;;;;6300863;28;19904;-88
2023/09/23 11:50:35;;;;;;;;;;;;;;;;;;6300399;28;19927;-88
2023/09/23 11:53:37;;;;;;;;;;;;;;;;;;6300111;28;20011;-88
2023/09/23 11:56:37;;;;;;;;;;;;;;;;;;6300822;28;19905;-88
2023/09/23 11:59:39;;;;;;;;;;;;;;;;;;6300414;28;19935;-88
2023/09/23 12:02:40;;;;;;;;;;;;;;;;;;6300337;28;19911;-88
2023/09/23 12:05:41;;;;;;;;;;;;;;;;;;6300252;28;19904;-88
2023/09/23 12:08:41;;;;;;;;;;;;;;;;;;6300044;28;19963;-88
2023/09/23 12:11:41;;;;;;;;;;;;;;;;;;6283166;28;20422;-88
2023/09/23 12:14:42;;;;;;;;;;;;;;;;;;6299958;28;19966;-88
2023/09/23 12:17:42;;;;;;;;;;;;;;;;;;6282345;28;19905;-88
2023/09/23 12:20:43;;;;;;;;;;;;;;;;;;6281587;28;19911;-89
2023/09/23 12:23:43;;;;;;;;;;;;;;;;;;6300433;28;20420;-89
2023/09/23 12:26:43;;;;;;;;;;;;;;;;;;6299692;28;19905;-88
2023/09/23 12:29:43;;;;;;;;;;;;;;;;;;6299255;28;19953;-88
2023/09/23 12:32:43;;;;;;;;;;;;;;;;;;6299089;28;19904;-87
2023/09/23 12:35:43;;;;;;;;;;;;;;;;;;6299073;28;19912;-85
2023/09/23 12:38:43;;;;;;;;;;;;;;;;;;6299323;28;19905;-87
2023/09/23 12:41:43;;;;;;;;;;;;;;;;;;6298933;28;19952;-86
2023/09/23 12:44:44;;;;;;;;;;;;;;;;;;6299557;28;19904;-86
2023/09/23 12:47:44;;;;;;;;;;;;;;;;;;6298629;28;19911;-85
2023/09/23 12:50:44;;;;;;;;;;;;;;;;;;6299327;28;20423;-86
2023/09/23 12:53:44;;;;;;;;;;;;;;;;;;6281610;28;19912;-87
2023/09/23 12:56:44;;;;;;;;;;;;;;;;;;6280811;28;19939;-86
2023/09/23 12:59:45;;;;;;;;;;;;;;;;;;6299916;28;20003;-88
2023/09/23 13:02:45;;;;;;;;;;;;;;;;;;6298578;28;19911;-87
2023/09/23 13:05:45;;;;;;;;;;;;;;;;;;6298650;28;19905;-87
2023/09/23 13:08:46;;;;;;;;;;;;;;;;;;6268813;28;19912;-88
2023/09/23 13:11:47;;;;;;;;;;;;;;;;;;6274117;28;19966;-88
2023/09/23 13:14:47;;;;;;;;;;;;;;;;;;6255542;28;19919;-88
2023/09/23 13:17:48;;;;;;;;;;;;;;;;;;6273927;28;19909;-88
2023/09/23 13:20:48;;;;;;;;;;;;;;;;;;6273690;28;20352;-89
2023/09/23 13:23:48;;;;;;;;;;;;;;;;;;6273404;28;19948;-88
2023/09/23 13:26:48;;;;;;;;;;;;;;;;;;6273095;28;19963;-89
2023/09/23 13:29:48;;;;;;;;;;;;;;;;;;6274084;28;19941;-89
2023/09/23 13:32:49;;;;;;;;;;;;;;;;;;6273654;28;19908;-89
2023/09/23 13:35:49;;;;;;;;;;;;;;;;;;6273176;28;20333;-89
2023/09/23 13:38:50;;;;;;;;;;;;;;;;;;6255598;28;20001;-88
2023/09/23 13:41:53;;;;;;;;;;;;;;;;;;6273216;28;19904;-89
2023/09/23 13:44:54;;;;;;;;;;;;;;;;;;6255048;28;20297;-88
2023/09/23 13:47:54;;;;;;;;;;;;;;;;;;6255403;28;19905;-89
2023/09/23 13:50:54;;;;;;;;;;;;;;;;;;6255093;28;19905;-90
2023/09/23 13:53:54;;;;;;;;;;;;;;;;;;6255786;28;19916;-89
2023/09/23 13:56:54;;;;;;;;;;;;;;;;;;6256473;28;19951;-90
2023/09/23 13:59:54;;;;;;;;;;;;;;;;;;6259802;28;19908;-89
2023/09/23 14:02:56;;;;;;;;;;;;;;;;;;6278527;28;19999;-89
2023/09/23 14:05:56;;;;;;;;;;;;;;;;;;6260047;28;20386;-88
2023/09/23 14:08:56;;;;;;;;;;;;;;;;;;6290263;28;19921;-89
2023/09/23 14:11:56;;;;;;;;;;;;;;;;;;6284725;28;20032;-89
2023/09/23 14:14:57;;;;;;;;;;;;;;;;;;6302760;28;20007;-89
2023/09/23 14:17:57;;;;;;;;;;;;;;;;;;6284819;28;19957;-89
2023/09/23 14:20:57;;;;;;;;;;;;;;;;;;6284435;28;19909;-90
2023/09/23 14:23:57;;;;;;;;;;;;;;;;;;6285198;28;19905;-89
2023/09/23 14:26:57;;;;;;;;;;;;;;;;;;6302289;28;19904;-89
2023/09/23 14:29:57;;;;;;;;;;;;;;;;;;6303019;28;19908;-90
2023/09/23 14:32:58;;;;;;;;;;;;;;;;;;6284386;28;19905;-87
2023/09/23 14:36:00;;;;;;;;;;;;;;;;;;6302341;28;20011;-87
2023/09/23 14:39:04;;;;;;;;;;;;;;;;;;6284122;28;19911;-88
2023/09/23 14:42:05;;;;;;;;;;;;;;;;;;6302037;28;20378;-88
2023/09/23 14:45:05;;;;;;;;;;;;;;;;;;6302753;28;19959;-87
2023/09/23 14:48:05;;;;;;;;;;;;;;;;;;6302280;28;19943;-87
2023/09/23 14:51:05;;;;;;;;;;;;;;;;;;6302011;28;19954;-87
2023/09/23 14:54:05;;;;;;;;;;;;;;;;;;6283456;28;19908;-88
2023/09/23 14:57:06;;;;;;;;;;;;;;;;;;6301495;28;20002;-87
2023/09/23 15:00:06;;;;;;;;;;;;;;;;;;6301440;28;19911;-87
2023/09/23 15:03:06;;;;;;;;;;;;;;;;;;6301431;28;20294;-87
2023/09/23 15:06:06;;;;;;;;;;;;;;;;;;6302009;28;19912;-87
2023/09/23 15:09:06;;;;;;;;;;;;;;;;;;6300543;28;19912;-87
2023/09/23 15:12:07;;;;;;;;;;;;;;;;;;6301124;28;19964;-87
2023/09/23 15:15:07;;;;;;;;;;;;;;;;;;6283297;28;19912;-89
2023/09/23 15:18:07;;;;;;;;;;;;;;;;;;6301846;28;19905;-87
2023/09/23 15:21:07;;;;;;;;;;;;;;;;;;6301011;28;19905;-87
2023/09/23 15:24:08;;;;;;;;;;;;;;;;;;6300865;28;19991;-86
2023/09/23 15:27:08;;;;;;;;;;;;;;;;;;6300592;28;19909;-88
2023/09/23 15:30:11;;;;;;;;;;;;;;;;;;6301109;28;20384;-87
2023/09/23 15:33:12;;;;;;;;;;;;;;;;;;6301130;28;19995;-88
2023/09/23 15:36:13;;;;;;;;;;;;;;;;;;6282925;28;20366;-88
2023/09/23 15:39:13;;;;;;;;;;;;;;;;;;6282662;28;19904;-88
2023/09/23 15:42:13;;;;;;;;;;;;;;;;;;6300546;28;19904;-87
2023/09/23 15:45:15;;;;;;;;;;;;;;;;;;6300473;28;20039;-87
2023/09/23 15:48:15;;;;;;;;;;;;;;;;;;6300803;28;19958;-88
2023/09/23 15:51:15;;;;;;;;;;;;;;;;;;6300462;28;20294;-87
2023/09/23 15:54:16;;;;;;;;;;;;;;;;;;6300598;28;20346;-86
2023/09/23 15:57:16;;;;;;;;;;;;;;;;;;6300786;28;19904;-86
2023/09/23 16:00:16;;;;;;;;;;;;;;;;;;6300664;28;19904;-87
2023/09/23 16:03:17;;;;;;;;;;;;;;;;;;6300097;28;19904;-87
2023/09/23 16:06:17;;;;;;;;;;;;;;;;;;6300063;28;19909;-87
2023/09/23 16:09:17;;;;;;;;;;;;;;;;;;6266445;28;20409;-87
2023/09/23 16:12:17;;;;;;;;;;;;;;;;;;6257095;28;20373;-88
2023/09/23 16:15:18;;;;;;;;;;;;;;;;;;6274755;28;19920;-88
2023/09/23 16:18:18;;;;;;;;;;;;;;;;;;6275035;28;19909;-87
2023/09/23 16:21:18;;;;;;;;;;;;;;;;;;6255735;28;20363;-87
2023/09/23 16:24:19;;;;;;;;;;;;;;;;;;6257202;28;19963;-87
2023/09/23 16:27:21;;;;;;;;;;;;;;;;;;6256845;28;20424;-86
2023/09/23 16:30:21;;;;;;;;;;;;;;;;;;6256834;28;19912;-86
2023/09/23 16:33:21;;;;;;;;;;;;;;;;;;6256697;28;19948;-86
2023/09/23 16:36:22;;;;;;;;;;;;;;;;;;6256667;28;19995;-86
2023/09/23 16:39:22;;;;;;;;;;;;;;;;;;6257169;28;19951;-86
2023/09/23 16:42:22;;;;;;;;;;;;;;;;;;6275058;28;19905;-86
2023/09/23 16:45:23;;;;;;;;;;;;;;;;;;6256269;28;19912;-85
2023/09/23 16:48:23;;;;;;;;;;;;;;;;;;6256275;28;20355;-87
2023/09/23 16:51:24;;;;;;;;;;;;;;;;;;6256633;28;19944;-87
2023/09/23 16:54:24;;;;;;;;;;;;;;;;;;6255555;28;19987;-87
2023/09/23 16:57:25;;;;;;;;;;;;;;;;;;6274836;28;19911;-87
2023/09/23 17:00:25;;;;;;;;;;;;;;;;;;6255553;28;19984;-87
2023/09/23 17:03:25;;;;;;;;;;;;;;;;;;6255155;28;19990;-87
2023/09/23 17:06:27;;;;;;;;;;;;;;;;;;6272635;28;19905;-87
2023/09/23 17:09:28;;;;;;;;;;;;;;;;;;6290678;28;19916;-86
2023/09/23 17:12:29;;;;;;;;;;;;;;;;;;6297239;28;19920;-87
2023/09/23 17:15:33;;;;;;;;;;;;;;;;;;6297230;28;19908;-87
2023/09/23 17:18:33;;;;;;;;;;;;;;;;;;6297377;28;19983;-87
2023/09/23 17:21:33;;;;;;;;;;;;;;;;;;6280420;28;19910;-86
2023/09/23 17:24:33;;;;;;;;;;;;;;;;;;6279597;28;19905;-87
2023/09/23 17:27:34;;;;;;;;;;;;;;;;;;6280598;28;19904;-87
2023/09/23 17:30:34;;;;;;;;;;;;;;;;;;6279932;28;20403;-87
2023/09/23 17:33:35;;;;;;;;;;;;;;;;;;6279205;28;19915;-87
2023/09/23 17:36:35;;;;;;;;;;;;;;;;;;6279819;28;19939;-86
2023/09/23 17:39:35;;;;;;;;;;;;;;;;;;6297352;28;19905;-86
2023/09/23 17:42:35;;;;;;;;;;;;;;;;;;6297360;28;19992;-87
2023/09/23 17:45:35;;;;;;;;;;;;;;;;;;6297325;28;19912;-86
2023/09/23 17:48:36;;;;;;;;;;;;;;;;;;6297096;28;19920;-87
2023/09/23 17:51:37;;;;;;;;;;;;;;;;;;6297510;28;19904;-87
2023/09/23 17:54:37;;;;;;;;;;;;;;;;;;6297778;28;19908;-87
2023/09/23 17:57:37;;;;;;;;;;;;;;;;;;6297120;28;19912;-87
2023/09/23 18:00:37;;;;;;;;;;;;;;;;;;6297598;28;19905;-87
2023/09/23 18:03:38;;;;;;;;;;;;;;;;;;6297120;28;19904;-87
2023/09/23 18:06:38;;;;;;;;;;;;;;;;;;6296943;28;20317;-87
2023/09/23 18:09:38;;;;;;;;;;;;;;;;;;6296925;28;19916;-87
2023/09/23 18:12:40;;;;;;;;;;;;;;;;;;6297305;28;19999;-88
2023/09/23 18:15:40;;;;;;;;;;;;;;;;;;6279254;28;19908;-87
2023/09/23 18:18:44;;;;;;;;;;;;;;;;;;6296898;28;20263;-87
2023/09/23 18:21:45;;;;;;;;;;;;;;;;;;6297507;28;19905;-87
2023/09/23 18:24:45;;;;;;;;;;;;;;;;;;6296743;28;19931;-87
2023/09/23 18:27:45;;;;;;;;;;;;;;;;;;6297001;28;19908;-87
2023/09/23 18:30:45;;;;;;;;;;;;;;;;;;6297062;28;19904;-85
2023/09/23 18:33:45;;;;;;;;;;;;;;;;;;6278991;28;19908;-86
2023/09/23 18:36:45;;;;;;;;;;;;;;;;;;6297012;28;19904;-86
2023/09/23 18:39:46;;;;;;;;;;;;;;;;;;6278731;28;19911;-86
2023/09/23 18:42:46;;;;;;;;;;;;;;;;;;6278868;28;19904;-86
2023/09/23 18:45:46;;;;;;;;;;;;;;;;;;6299413;28;19911;-87
2023/09/23 18:48:46;;;;;;;;;;;;;;;;;;6301425;28;20277;-87
2023/09/23 18:51:46;;;;;;;;;;;;;;;;;;6301264;28;19986;-86
2023/09/23 18:54:47;;;;;;;;;;;;;;;;;;6283552;28;19908;-86
2023/09/23 18:57:47;;;;;;;;;;;;;;;;;;6301500;28;20392;-87
2023/09/23 19:00:47;;;;;;;;;;;;;;;;;;6301420;28;19912;-87
2023/09/23 19:03:47;;;;;;;;;;;;;;;;;;6301096;28;19904;-86
2023/09/23 19:06:48;;;;;;;;;;;;;;;;;;6300931;28;19911;-86
2023/09/23 19:09:51;;;;;;;;;;;;;;;;;;6300660;28;19931;-86
2023/09/23 19:12:51;;;;;;;;;;;;;;;;;;6300605;28;19905;-86
2023/09/23 19:15:51;;;;;;;;;;;;;;;;;;6282770;28;19908;-86
2023/09/23 19:18:54;;;;;;;;;;;;;;;;;;6300472;28;19921;-87
2023/09/23 19:21:54;;;;;;;;;;;;;;;;;;6300314;28;19905;-87
2023/09/23 19:24:54;;;;;;;;;;;;;;;;;;6301117;28;19959;-87
2023/09/23 19:27:54;;;;;;;;;;;;;;;;;;6282477;28;19905;-86
2023/09/23 19:30:58;;;;;;;;;;;;;;;;;;6282411;28;19911;-87
2023/09/23 19:33:59;;;;;;;;;;;;;;;;;;6300356;28;19912;-86
2023/09/23 19:36:59;;;;;;;;;;;;;;;;;;6300337;28;19908;-87
2023/09/23 19:39:59;;;;;;;;;;;;;;;;;;6282629;28;20389;-87
2023/09/23 19:42:59;;;;;;;;;;;;;;;;;;6300180;28;19958;-87
2023/09/23 19:45:59;;;;;;;;;;;;;;;;;;6300558;28;19914;-87
2023/09/23 19:48:59;;;;;;;;;;;;;;;;;;6299991;28;20428;-87
2023/09/23 19:51:59;;;;;;;;;;;;;;;;;;6300447;28;19905;-86
2023/09/23 19:55:00;;;;;;;;;;;;;;;;;;6299829;28;20000;-86
2023/09/23 19:58:00;;;;;;;;;;;;;;;;;;6282460;28;19911;-86
2023/09/23 20:01:00;;;;;;;;;;;;;;;;;;6281956;28;19973;-87
2023/09/23 20:04:00;;;;;;;;;;;;;;;;;;6281753;28;19904;-86
2023/09/23 20:07:00;;;;;;;;;;;;;;;;;;6282104;28;20362;-87
2023/09/23 20:10:05;;;;;;;;;;;;;;;;;;6299514;28;19916;-85
2023/09/23 20:13:05;;;;;;;;;;;;;;;;;;6299848;28;19951;-87
2023/09/23 20:16:05;;;;;;;;;;;;;;;;;;6299404;28;19948;-87
2023/09/23 20:19:06;;;;;;;;;;;;;;;;;;6299725;28;19916;-86
2023/09/23 20:22:09;;;;;;;;;;;;;;;;;;6281367;28;19991;-87
2023/09/23 20:25:11;;;;;;;;;;;;;;;;;;6299238;28;19916;-87
2023/09/23 20:28:11;;;;;;;;;;;;;;;;;;6299721;28;19909;-87
2023/09/23 20:31:14;;;;;;;;;;;;;;;;;;6299591;28;19951;-87
2023/09/23 20:34:16;;;;;;;;;;;;;;;;;;6281109;28;20302;-87
2023/09/23 20:37:16;;;;;;;;;;;;;;;;;;6299375;28;19923;-87